Time;durP1;ratioP1;P1;durP2;ratioP2;P2;SDS_P1;SDS_P2;PMS_P1;PMS_P2;Temp;Humidity;BMP_temperature;BMP_pressure;BME280_temperature;BME280_humidity;BME280_pressure;Samples;Min_cycle;Max_cycle;Signal;HPM_P1;HPM_P2
2024/01/08 00:01:33;;;;;;;18.15;9.00;;;-1.60;99.90;;;;;;4930333;28;87082;-81
2024/01/08 00:03:59;;;;;;;18.95;8.68;;;-1.60;99.90;;;;;;4926616;28;87137;-81
2024/01/08 00:06:25;;;;;;;18.08;9.23;;;-1.60;99.90;;;;;;4915466;28;89418;-81
2024/01/08 00:08:51;;;;;;;21.30;8.52;;;-1.60;99.90;;;;;;4915271;28;88508;-81
2024/01/08 00:11:17;;;;;;;20.75;8.95;;;-1.60;99.90;;;;;;4930571;28;93437;-78
2024/01/08 00:13:43;;;;;;;16.65;8.77;;;-1.60;99.90;;;;;;4916568;28;86853;-80
2024/01/08 00:16:10;;;;;;;18.50;8.57;;;-1.50;99.90;;;;;;4928383;28;88793;-78
2024/01/08 00:18:36;;;;;;;16.73;9.07;;;-1.50;99.90;;;;;;4934100;28;88103;-79
2024/01/08 00:21:02;;;;;;;18.85;8.60;;;-1.50;99.90;;;;;;4916025;28;87332;-78
2024/01/08 00:23:30;;;;;;;15.48;8.38;;;-1.50;99.90;;;;;;4915286;28;86656;-80
2024/01/08 00:25:55;;;;;;;16.67;8.40;;;-1.50;99.90;;;;;;4913548;28;88726;-79
2024/01/08 00:28:21;;;;;;;16.10;8.20;;;-1.40;99.90;;;;;;4917837;28;87127;-80
2024/01/08 00:30:47;;;;;;;20.10;8.52;;;-1.40;99.90;;;;;;4933194;28;88404;-79
2024/01/08 00:33:13;;;;;;;15.88;8.50;;;-1.40;99.90;;;;;;4916656;28;87461;-81
2024/01/08 00:35:41;;;;;;;17.55;8.50;;;-1.30;99.90;;;;;;4912515;28;87903;-79
2024/01/08 00:38:07;;;;;;;18.45;8.50;;;-1.30;99.90;;;;;;4926243;28;88180;-81
2024/01/08 00:40:34;;;;;;;18.58;9.15;;;-1.30;99.90;;;;;;4909939;28;87218;-79
2024/01/08 00:43:00;;;;;;;17.58;9.05;;;-1.20;99.90;;;;;;4911280;28;87909;-80
2024/01/08 00:45:26;;;;;;;20.20;8.63;;;-1.20;99.90;;;;;;4910358;28;89018;-79
2024/01/08 00:47:52;;;;;;;20.88;9.40;;;-1.20;99.90;;;;;;4914669;28;87258;-79
2024/01/08 00:50:19;;;;;;;18.35;9.45;;;-1.20;99.90;;;;;;4927767;28;87367;-79
2024/01/08 00:52:44;;;;;;;15.15;8.18;;;-1.10;99.90;;;;;;4911968;28;88023;-80
2024/01/08 00:55:11;;;;;;;15.98;8.35;;;-1.10;99.90;;;;;;4908807;28;89409;-81
2024/01/08 00:57:38;;;;;;;19.05;8.43;;;-1.10;99.90;;;;;;4929869;28;89404;-79
2024/01/08 01:00:11;;;;;;;18.23;8.18;;;-1.10;99.90;;;;;;4919165;28;87458;-78
2024/01/08 01:02:38;;;;;;;17.88;7.93;;;-1.00;99.90;;;;;;4914873;28;89012;-81
2024/01/08 01:05:04;;;;;;;18.55;8.45;;;-1.00;99.90;;;;;;4922723;28;87797;-81
2024/01/08 01:07:31;;;;;;;19.67;8.57;;;-1.00;99.90;;;;;;4929591;28;88018;-78
2024/01/08 01:09:56;;;;;;;14.85;8.43;;;-1.00;99.90;;;;;;4928417;28;87945;-79
2024/01/08 01:12:23;;;;;;;16.77;8.57;;;-0.90;99.90;;;;;;4916309;28;88981;-78
2024/01/08 01:14:50;;;;;;;17.88;9.35;;;-0.90;99.90;;;;;;4914432;28;87710;-81
2024/01/08 01:17:16;;;;;;;18.80;8.38;;;-0.90;99.90;;;;;;4931791;28;87122;-79
2024/01/08 01:19:42;;;;;;;15.27;8.05;;;-0.90;99.90;;;;;;4914115;28;88245;-78
2024/01/08 01:22:08;;;;;;;19.90;8.13;;;-0.80;99.90;;;;;;4913510;28;87300;-79
2024/01/08 01:24:34;;;;;;;14.85;7.40;;;-0.80;99.90;;;;;;4929841;28;87859;-78
2024/01/08 01:27:00;;;;;;;19.63;9.25;;;-0.80;99.90;;;;;;4902932;28;88065;-78
2024/01/08 01:29:26;;;;;;;18.33;8.00;;;-0.80;99.90;;;;;;4930185;28;87171;-78
2024/01/08 01:31:52;;;;;;;16.00;7.88;;;-0.80;99.90;;;;;;4916234;28;87214;-78
2024/01/08 01:34:18;;;;;;;18.23;8.55;;;-0.80;99.90;;;;;;4916539;28;88920;-79
2024/01/08 01:36:49;;;;;;;13.43;7.05;;;-0.80;99.90;;;;;;4933011;28;88124;-81
2024/01/08 01:39:15;;;;;;;16.08;8.55;;;-0.70;99.90;;;;;;4904605;28;88244;-80
2024/01/08 01:41:41;;;;;;;15.73;7.53;;;-0.70;99.90;;;;;;4929603;28;87576;-81
2024/01/08 01:44:07;;;;;;;16.50;8.43;;;-0.70;99.90;;;;;;4900073;28;89594;-81
2024/01/08 01:46:40;;;;;;;16.95;8.10;;;-0.70;99.90;;;;;;4898962;28;87674;-81
2024/01/08 01:49:07;;;;;;;;;;;-0.70;99.90;;;;;;4905717;28;87286;-79
2024/01/08 01:51:33;;;;;;;16.77;8.68;;;-0.70;99.90;;;;;;4906635;28;87943;-78
2024/01/08 01:54:00;;;;;;;19.70;8.55;;;-0.70;99.90;;;;;;4898376;28;87273;-82
2024/01/08 01:56:27;;;;;;;23.15;9.30;;;-0.70;99.90;;;;;;4933548;28;87508;-79
2024/01/08 01:58:55;;;;;;;17.20;9.45;;;-0.80;99.90;;;;;;4918150;28;87386;-80
2024/01/08 02:01:22;;;;;;;16.42;8.95;;;-0.80;99.90;;;;;;4917444;28;86533;-81
2024/01/08 02:03:48;;;;;;;19.13;9.05;;;-0.80;99.90;;;;;;4915670;28;89003;-80
2024/01/08 02:06:16;;;;;;;18.52;8.90;;;-0.70;99.90;;;;;;4934189;28;87359;-81
2024/01/08 02:11:08;;;;;;;18.02;9.40;;;-0.80;99.90;;;;;;4899211;28;88274;-78
2024/01/08 02:13:34;;;;;;;18.65;9.25;;;-0.80;99.90;;;;;;4930029;28;87693;-79
2024/01/08 02:15:59;;;;;;;20.40;9.00;;;-0.80;99.90;;;;;;4932531;28;88469;-81
2024/01/08 02:18:25;;;;;;;16.92;8.05;;;-0.80;99.90;;;;;;4931109;28;87736;-81
2024/01/08 02:20:54;;;;;;;15.80;8.30;;;-0.80;99.90;;;;;;4931296;28;87110;-81
2024/01/08 02:23:19;;;;;;;15.82;8.57;;;-0.70;99.90;;;;;;4914615;28;87078;-78
2024/01/08 02:25:45;;;;;;;15.20;8.73;;;-0.70;99.90;;;;;;4914206;28;87973;-82
2024/01/08 02:28:11;;;;;;;17.40;8.63;;;-0.70;99.90;;;;;;4936823;28;87900;-78
2024/01/08 02:30:37;;;;;;;15.40;8.82;;;-0.70;99.90;;;;;;4932563;28;87317;-81
2024/01/08 02:33:03;;;;;;;17.13;8.55;;;-0.70;99.90;;;;;;4933689;28;89104;-79
2024/01/08 02:35:32;;;;;;;22.83;8.85;;;-0.70;99.90;;;;;;4931289;28;88128;-78
2024/01/08 02:37:58;;;;;;;12.48;7.65;;;-0.70;99.90;;;;;;4932603;28;88739;-80
2024/01/08 02:40:24;;;;;;;14.23;8.43;;;-0.70;99.90;;;;;;4911583;28;88276;-78
2024/01/08 02:42:50;;;;;;;18.67;8.60;;;-0.80;99.90;;;;;;4914345;28;89457;-80
2024/01/08 02:45:16;;;;;;;13.23;7.60;;;-0.80;99.90;;;;;;4912541;28;88097;-80
2024/01/08 02:47:42;;;;;;;17.48;7.95;;;-0.80;99.90;;;;;;4917154;28;87221;-79
2024/01/08 02:50:08;;;;;;;13.65;7.80;;;-0.80;99.90;;;;;;4929345;28;87413;-80
2024/01/08 02:52:35;;;;;;;11.93;7.05;;;-0.80;99.90;;;;;;4927404;28;87419;-78
2024/01/08 02:55:02;;;;;;;12.55;6.85;;;-0.80;99.90;;;;;;4928475;28;87184;-79
2024/01/08 02:57:29;;;;;;;12.00;6.57;;;-0.80;99.90;;;;;;4914099;28;89263;-79
2024/01/08 02:59:55;;;;;;;14.57;7.00;;;-0.80;99.90;;;;;;4916652;28;87218;-79
2024/01/08 03:02:23;;;;;;;11.98;6.05;;;-0.80;99.90;;;;;;4930139;28;87181;-82
2024/01/08 03:04:49;;;;;;;11.20;6.47;;;-0.80;99.90;;;;;;4921833;28;87914;-77
2024/01/08 03:07:20;;;;;;;11.98;6.15;;;-0.80;99.90;;;;;;4902605;28;87797;-80
2024/01/08 03:09:47;;;;;;;10.77;6.50;;;-0.80;99.90;;;;;;4927348;28;87488;-81
2024/01/08 03:12:13;;;;;;;9.02;5.85;;;-0.80;99.90;;;;;;4911813;28;87429;-81
2024/01/08 03:14:39;;;;;;;12.23;6.20;;;-0.80;99.90;;;;;;4932594;28;87398;-78
2024/01/08 03:17:05;;;;;;;11.57;5.57;;;-0.90;99.90;;;;;;4936021;28;86767;-79
2024/01/08 03:19:32;;;;;;;12.18;6.32;;;-0.90;99.90;;;;;;4933190;28;87227;-82
2024/01/08 03:22:01;;;;;;;13.00;6.38;;;-0.90;99.90;;;;;;4916636;28;89070;-79
2024/01/08 03:24:26;;;;;;;9.77;5.68;;;-0.90;99.90;;;;;;4917609;28;87385;-80
2024/01/08 03:26:52;;;;;;;11.50;6.07;;;-0.90;99.90;;;;;;4934303;28;87622;-81
2024/01/08 03:29:18;;;;;;;11.20;6.47;;;-0.90;99.90;;;;;;4915835;28;87736;-82
2024/01/08 03:31:44;;;;;;;15.50;6.95;;;-0.90;99.90;;;;;;4918217;28;87984;-78
2024/01/08 03:34:11;;;;;;;11.15;6.88;;;-0.90;99.90;;;;;;4914215;28;88128;-79
2024/01/08 03:36:38;;;;;;;12.52;6.57;;;-0.90;99.90;;;;;;4916924;28;87168;-80
2024/01/08 03:39:03;;;;;;;11.43;6.47;;;-0.90;99.90;;;;;;4905265;28;87312;-79
2024/01/08 03:41:29;;;;;;;11.77;5.95;;;-0.90;99.90;;;;;;4935896;28;88173;-81
2024/01/08 03:43:55;;;;;;;11.63;6.78;;;-0.90;99.90;;;;;;4913631;28;89333;-80
2024/01/08 03:46:21;;;;;;;11.13;6.03;;;-0.90;99.90;;;;;;4901973;28;89305;-78
2024/01/08 03:48:48;;;;;;;11.40;6.30;;;-0.90;99.90;;;;;;4914888;28;88143;-80
2024/01/08 03:51:15;;;;;;;11.88;6.72;;;-0.90;99.90;;;;;;4913076;28;89983;-78
2024/01/08 03:53:41;;;;;;;9.80;5.72;;;-0.90;99.90;;;;;;4914235;28;87264;-80
2024/01/08 03:56:08;;;;;;;13.13;6.10;;;-0.90;99.90;;;;;;4913791;28;87373;-80
2024/01/08 03:58:36;;;;;;;12.38;6.43;;;-0.90;99.90;;;;;;4915035;28;87832;-79
2024/01/08 04:01:01;;;;;;;13.05;5.90;;;-0.90;99.90;;;;;;4915493;28;87318;-78
2024/01/08 04:03:27;;;;;;;11.82;6.07;;;-0.90;99.90;;;;;;4933448;28;87109;-79
2024/01/08 04:05:53;;;;;;;12.38;6.68;;;-0.90;99.90;;;;;;4918453;28;87223;-79
2024/01/08 04:08:18;;;;;;;11.60;6.22;;;-0.90;99.90;;;;;;4917841;28;87869;-80
2024/01/08 04:10:44;;;;;;;11.48;6.03;;;-0.90;99.90;;;;;;4922062;28;89949;-79
2024/01/08 04:13:10;;;;;;;10.05;5.85;;;-0.90;99.90;;;;;;4934709;28;88386;-80
2024/01/08 04:15:35;;;;;;;10.82;5.97;;;-0.90;99.90;;;;;;4912052;28;87633;-80
2024/01/08 04:18:01;;;;;;;11.07;5.80;;;-0.90;99.90;;;;;;4935167;28;87375;-81
2024/01/08 04:20:26;;;;;;;14.68;6.28;;;-1.00;99.90;;;;;;4913266;28;87810;-80
2024/01/08 04:22:53;;;;;;;9.98;5.97;;;-1.00;99.90;;;;;;4933641;28;87465;-82
2024/01/08 04:25:18;;;;;;;11.65;5.50;;;-1.00;99.90;;;;;;4935068;28;87532;-78
2024/01/08 04:27:44;;;;;;;8.93;5.82;;;-1.00;99.90;;;;;;4932897;28;86829;-78
2024/01/08 04:30:11;;;;;;;11.43;5.53;;;-1.10;99.90;;;;;;4916539;28;87833;-79
2024/01/08 04:32:37;;;;;;;12.32;5.75;;;-1.10;99.90;;;;;;4914143;28;88598;-78
2024/01/08 04:35:05;;;;;;;11.02;6.32;;;-1.20;99.90;;;;;;4929718;28;88463;-79
2024/01/08 04:37:30;;;;;;;9.50;5.57;;;-1.20;99.90;;;;;;4928994;28;87127;-81
2024/01/08 04:39:56;;;;;;;11.55;6.35;;;-1.20;99.90;;;;;;4912786;28;88756;-80
2024/01/08 04:42:22;;;;;;;8.82;5.20;;;-1.30;99.90;;;;;;4938046;28;88609;-77
2024/01/08 04:44:48;;;;;;;12.15;5.43;;;-1.30;99.90;;;;;;4932199;28;87024;-79
2024/01/08 04:47:13;;;;;;;12.98;5.45;;;-1.40;99.90;;;;;;4932940;28;88018;-80
2024/01/08 04:49:40;;;;;;;10.43;6.13;;;-1.40;99.90;;;;;;4929300;28;88793;-79
2024/01/08 04:52:06;;;;;;;9.32;5.53;;;-1.40;99.90;;;;;;4912731;28;87094;-78
2024/01/08 04:54:32;;;;;;;10.80;6.35;;;-1.40;99.90;;;;;;4915456;28;87660;-78
2024/01/08 04:56:58;;;;;;;10.80;5.65;;;-1.40;99.90;;;;;;4929258;28;86997;-79
2024/01/08 04:59:24;;;;;;;12.48;5.88;;;-1.40;99.90;;;;;;4909005;28;89638;-78
2024/01/08 05:01:50;;;;;;;12.63;6.32;;;-1.40;99.90;;;;;;4909460;28;89637;-80
2024/01/08 05:04:17;;;;;;;10.95;6.53;;;-1.50;99.90;;;;;;4913879;28;87016;-79
2024/01/08 05:06:44;;;;;;;9.82;5.75;;;-1.50;99.90;;;;;;4915062;28;87038;-79
2024/01/08 05:09:11;;;;;;;11.98;6.40;;;-1.50;99.90;;;;;;4914604;28;89585;-79
2024/01/08 05:11:38;;;;;;;13.90;6.28;;;-1.50;99.90;;;;;;4913675;28;88152;-80
2024/01/08 05:14:04;;;;;;;10.50;6.03;;;-1.50;99.90;;;;;;4907932;28;87714;-78
2024/01/08 05:16:35;;;;;;;12.02;5.85;;;-1.40;99.90;;;;;;4932785;28;87332;-79
2024/01/08 05:19:00;;;;;;;11.57;6.47;;;-1.40;99.90;;;;;;4923279;28;88894;-79
2024/01/08 05:21:26;;;;;;;11.25;6.70;;;-1.40;99.90;;;;;;4901136;28;88169;-80
2024/01/08 05:23:52;;;;;;;11.57;6.63;;;-1.40;99.90;;;;;;4908749;28;88391;-78
2024/01/08 05:26:17;;;;;;;13.00;6.28;;;-1.40;99.90;;;;;;4914696;28;87414;-78
2024/01/08 05:28:44;;;;;;;11.60;7.05;;;-1.40;99.90;;;;;;4916076;28;89513;-81
2024/01/08 05:31:12;;;;;;;14.50;6.43;;;-1.40;99.90;;;;;;4931135;28;87716;-79
2024/01/08 05:33:38;;;;;;;16.92;6.70;;;-1.40;99.90;;;;;;4916509;28;87202;-81
2024/01/08 05:36:03;;;;;;;10.55;6.18;;;-1.40;99.90;;;;;;4925201;28;87165;-81
2024/01/08 05:38:29;;;;;;;10.55;6.15;;;-1.40;99.90;;;;;;4927753;28;88101;-78
2024/01/08 05:40:55;;;;;;;11.68;6.20;;;-1.40;99.90;;;;;;4914585;28;88141;-82
2024/01/08 05:43:22;;;;;;;15.40;7.20;;;-1.40;99.90;;;;;;4910849;28;87427;-79
2024/01/08 05:45:48;;;;;;;11.32;6.30;;;-1.40;99.90;;;;;;4913486;28;87782;-80
2024/01/08 05:48:14;;;;;;;12.23;6.50;;;-1.40;99.90;;;;;;4908594;28;88655;-79
2024/01/08 05:50:39;;;;;;;15.13;6.63;;;-1.40;99.90;;;;;;4907822;28;89385;-77
2024/01/08 05:53:05;;;;;;;11.95;6.65;;;-1.40;99.90;;;;;;4910085;28;87670;-77
2024/01/08 05:55:31;;;;;;;12.38;6.60;;;-1.40;99.90;;;;;;4923957;28;87650;-80
2024/01/08 05:57:57;;;;;;;15.15;7.28;;;-1.30;99.90;;;;;;4924531;28;88273;-80
2024/01/08 06:00:24;;;;;;;13.00;6.70;;;-1.30;99.90;;;;;;4909792;28;88556;-82
2024/01/08 06:02:50;;;;;;;13.68;6.85;;;-1.30;99.90;;;;;;4927320;28;88239;-79
2024/01/08 06:05:15;;;;;;;13.65;7.32;;;-1.30;99.90;;;;;;4930599;28;86868;-78
2024/01/08 06:11:03;;;;;;;14.25;6.68;;;-1.30;99.90;;;;;;4928527;28;87109;-79
2024/01/08 06:13:29;;;;;;;14.27;6.65;;;-1.30;99.90;;;;;;4910615;28;88159;-82
2024/01/08 06:15:54;;;;;;;14.88;7.43;;;-1.40;99.90;;;;;;4927646;28;87605;-78
2024/01/08 06:18:20;;;;;;;13.10;7.00;;;-1.40;99.90;;;;;;4930249;28;89194;-81
2024/01/08 06:20:46;;;;;;;14.15;7.35;;;-1.40;99.90;;;;;;4914234;28;87108;-80
2024/01/08 06:23:13;;;;;;;14.00;6.90;;;-1.30;99.90;;;;;;4912439;28;87232;-78
2024/01/08 06:25:40;;;;;;;13.73;6.82;;;-1.40;99.90;;;;;;4913425;28;87505;-80
2024/01/08 06:28:05;;;;;;;13.10;7.07;;;-1.30;99.90;;;;;;4928666;28;87620;-79
2024/01/08 06:30:32;;;;;;;14.70;7.55;;;-1.30;99.90;;;;;;4923344;28;87035;-79
2024/01/08 06:32:57;;;;;;;15.82;7.63;;;-1.40;99.90;;;;;;4913981;28;87512;-78
2024/01/08 06:35:23;;;;;;;13.50;7.15;;;-1.40;99.90;;;;;;4909627;28;86937;-79
2024/01/08 06:37:55;;;;;;;15.55;7.53;;;-1.40;99.90;;;;;;4912614;28;88567;-82
2024/01/08 06:40:21;;;;;;;15.80;8.13;;;-1.30;99.90;;;;;;4915601;28;87445;-79
2024/01/08 06:42:47;;;;;;;14.98;7.70;;;-1.40;99.90;;;;;;4930394;28;87066;-80
2024/01/08 06:45:13;;;;;;;17.10;8.18;;;-1.40;99.90;;;;;;4931340;28;88093;-81
2024/01/08 06:47:39;;;;;;;14.18;7.57;;;-1.40;99.90;;;;;;4907745;28;88476;-77
2024/01/08 06:50:05;;;;;;;13.93;8.07;;;-1.40;99.90;;;;;;4912355;28;87557;-80
2024/01/08 06:52:32;;;;;;;13.52;7.40;;;-1.40;99.90;;;;;;4926506;28;87230;-79
2024/01/08 06:54:57;;;;;;;16.52;7.40;;;-1.40;99.90;;;;;;4908789;28;87286;-82
2024/01/08 06:57:24;;;;;;;16.13;7.63;;;-1.40;99.90;;;;;;4911656;28;89030;-79
2024/01/08 06:59:50;;;;;;;14.30;7.25;;;-1.30;99.90;;;;;;4914509;28;87451;-79
2024/01/08 07:02:18;;;;;;;15.98;7.82;;;-1.30;99.90;;;;;;4930178;28;88094;-81
2024/01/08 07:04:44;;;;;;;12.90;7.00;;;-1.30;99.90;;;;;;4927641;28;87522;-77
2024/01/08 07:07:10;;;;;;;15.15;7.88;;;-1.30;99.90;;;;;;4910483;28;88047;-77
2024/01/08 07:09:35;;;;;;;18.65;7.93;;;-1.30;99.90;;;;;;4925116;28;88147;-82
2024/01/08 07:12:02;;;;;;;17.25;7.88;;;-1.30;99.90;;;;;;4914705;28;87628;-79
2024/01/08 07:14:28;;;;;;;16.52;7.55;;;-1.30;99.90;;;;;;4931692;28;87515;-79
2024/01/08 07:16:54;;;;;;;15.00;9.20;;;-1.40;99.90;;;;;;4928497;28;88089;-82
2024/01/08 07:19:20;;;;;;;16.02;7.80;;;-1.30;99.90;;;;;;4915703;28;87672;-79
2024/01/08 07:21:45;;;;;;;15.15;7.95;;;-1.40;99.90;;;;;;4927467;28;87824;-82
2024/01/08 07:24:12;;;;;;;16.85;7.88;;;-1.40;99.90;;;;;;4907729;28;88102;-79
2024/01/08 07:26:38;;;;;;;16.42;7.57;;;-1.40;99.90;;;;;;4909036;28;89139;-78
2024/01/08 07:29:06;;;;;;;16.40;8.02;;;-1.40;99.90;;;;;;4909655;28;88310;-78
2024/01/08 07:31:32;;;;;;;14.70;7.13;;;-1.40;99.90;;;;;;4925257;28;87501;-78
2024/01/08 07:33:58;;;;;;;14.80;7.53;;;-1.40;99.90;;;;;;4909601;28;87015;-78
2024/01/08 07:36:25;;;;;;;14.95;8.60;;;-1.40;99.90;;;;;;4912631;28;87858;-79
2024/01/08 07:38:51;;;;;;;16.67;8.15;;;-1.40;99.90;;;;;;4926778;28;87882;-78
2024/01/08 07:41:17;;;;;;;14.75;8.15;;;-1.30;99.90;;;;;;4911823;28;87918;-79
2024/01/08 07:43:44;;;;;;;13.48;7.72;;;-1.30;99.90;;;;;;4911072;28;87842;-79
2024/01/08 07:46:10;;;;;;;13.38;7.75;;;-1.30;99.90;;;;;;4910150;28;87921;-80
2024/01/08 07:48:35;;;;;;;14.38;7.78;;;-1.30;99.90;;;;;;4925641;28;87169;-81
2024/01/08 07:51:01;;;;;;;15.32;8.02;;;-1.30;99.90;;;;;;4914109;28;88745;-78
2024/01/08 07:53:27;;;;;;;15.48;8.35;;;-1.30;99.90;;;;;;4910757;28;87748;-78
2024/01/08 07:55:53;;;;;;;16.25;8.25;;;-1.30;99.90;;;;;;4915429;28;89328;-80
2024/01/08 07:58:19;;;;;;;17.98;8.30;;;-1.30;99.90;;;;;;4928033;28;87934;-78
2024/01/08 08:00:45;;;;;;;15.00;8.35;;;-1.30;99.90;;;;;;4930820;28;87969;-81
2024/01/08 08:03:11;;;;;;;15.48;8.00;;;-1.30;99.90;;;;;;4931532;28;87922;-80
2024/01/08 08:05:39;;;;;;;15.73;8.15;;;-1.30;99.90;;;;;;4928155;28;87797;-77
2024/01/08 08:08:05;;;;;;;20.92;9.95;;;-1.30;99.90;;;;;;4933921;28;87211;-79
2024/01/08 08:10:31;;;;;;;21.48;8.43;;;-1.30;99.90;;;;;;4910824;28;87564;-77
2024/01/08 08:12:57;;;;;;;16.42;8.40;;;-1.30;99.90;;;;;;4931616;28;87636;-79
2024/01/08 08:15:22;;;;;;;18.13;8.75;;;-1.30;99.90;;;;;;4915180;28;88796;-77
2024/01/08 08:17:50;;;;;;;16.33;9.07;;;-1.30;99.90;;;;;;4919152;28;88279;-79
2024/01/08 08:20:15;;;;;;;16.52;9.35;;;-1.20;99.90;;;;;;4913133;28;87639;-78
2024/01/08 08:22:41;;;;;;;17.15;8.82;;;-1.20;99.90;;;;;;4913548;28;87925;-78
2024/01/08 08:25:07;;;;;;;18.77;9.25;;;-1.20;99.90;;;;;;4906949;28;87906;-80
2024/01/08 08:27:35;;;;;;;17.55;8.45;;;-1.20;99.90;;;;;;4918169;28;87628;-81
2024/01/08 08:30:01;;;;;;;19.48;9.05;;;-1.20;99.90;;;;;;4934193;28;87439;-78
2024/01/08 08:32:26;;;;;;;16.70;8.95;;;-1.20;99.90;;;;;;4929956;28;87597;-78
2024/01/08 08:34:52;;;;;;;18.90;9.30;;;-1.20;99.90;;;;;;4917385;28;88001;-80
2024/01/08 08:37:19;;;;;;;19.13;9.10;;;-1.20;99.90;;;;;;4927854;28;87443;-77
2024/01/08 08:39:44;;;;;;;20.30;9.63;;;-1.20;99.90;;;;;;4914732;28;88676;-80
2024/01/08 08:42:11;;;;;;;18.90;8.93;;;-1.10;99.90;;;;;;4915465;28;87688;-80
2024/01/08 08:44:37;;;;;;;19.73;10.02;;;-1.20;99.90;;;;;;4913708;28;87656;-79
2024/01/08 08:47:04;;;;;;;18.88;9.32;;;-1.20;99.90;;;;;;4933968;28;87761;-81
2024/01/08 08:49:30;;;;;;;18.67;9.32;;;-1.10;99.90;;;;;;4929263;28;87262;-79
2024/01/08 08:51:56;;;;;;;21.88;10.23;;;-1.10;99.90;;;;;;4906634;28;87258;-75
2024/01/08 08:54:23;;;;;;;19.13;9.88;;;-1.10;99.90;;;;;;4911604;28;88792;-80
2024/01/08 08:56:48;;;;;;;18.63;9.63;;;-1.10;99.90;;;;;;4907185;28;92896;-77
2024/01/08 08:59:14;;;;;;;19.73;9.90;;;-1.10;99.90;;;;;;4911994;28;87057;-80
2024/01/08 09:01:41;;;;;;;25.15;11.45;;;-1.10;99.90;;;;;;4904916;28;88043;-77
2024/01/08 09:04:07;;;;;;;16.92;9.63;;;-1.10;99.90;;;;;;4913820;28;90872;-78
2024/01/08 09:06:35;;;;;;;21.73;10.90;;;-1.10;99.90;;;;;;4921015;28;88669;-79
2024/01/08 09:09:02;;;;;;;21.08;10.55;;;-1.10;99.90;;;;;;4934114;28;86986;-81
2024/01/08 09:11:28;;;;;;;22.40;10.90;;;-1.10;99.90;;;;;;4924316;28;88560;-79
2024/01/08 09:14:15;;;;;;;20.70;10.55;;;-1.10;99.90;;;;;;5008950;22;88497;-85
2024/01/08 09:17:34;;;;;;;22.13;9.95;;;-1.10;99.90;;;;;;4951488;28;88025;-88
2024/01/08 09:20:05;;;;;;;17.45;9.23;;;-1.00;99.90;;;;;;4961731;22;87545;-78
2024/01/08 09:22:32;;;;;;;19.45;10.48;;;-1.00;99.90;;;;;;4953353;28;86891;-79
2024/01/08 09:25:01;;;;;;;23.17;10.75;;;-1.00;99.90;;;;;;4936570;28;87945;-81
2024/01/08 09:27:28;;;;;;;20.02;10.57;;;-1.00;99.90;;;;;;4923482;28;87446;-78
2024/01/08 09:29:55;;;;;;;25.65;11.00;;;-1.00;99.90;;;;;;4936461;28;89242;-78
2024/01/08 09:32:21;;;;;;;23.67;11.35;;;-1.00;99.90;;;;;;4936021;28;87369;-78
2024/01/08 09:34:47;;;;;;;21.38;10.35;;;-1.00;99.90;;;;;;4929521;28;91584;-79
2024/01/08 09:37:14;;;;;;;23.67;11.55;;;-1.00;99.90;;;;;;4933353;28;86771;-79
2024/01/08 09:39:40;;;;;;;24.30;10.90;;;-0.90;99.90;;;;;;4937966;28;87423;-78
2024/01/08 09:42:09;;;;;;;22.15;10.73;;;-1.00;99.90;;;;;;4934320;28;87143;-78
2024/01/08 09:44:38;;;;;;;20.23;10.90;;;-0.90;99.90;;;;;;4936779;28;87356;-78
2024/01/08 09:47:04;;;;;;;24.08;12.25;;;-0.90;99.90;;;;;;4937798;28;86785;-79
2024/01/08 09:49:34;;;;;;;22.42;11.75;;;-0.90;99.90;;;;;;4953536;28;87159;-79
2024/01/08 09:52:05;;;;;;;22.67;11.38;;;-0.80;99.90;;;;;;4935713;28;87465;-78
2024/01/08 09:54:35;;;;;;;25.65;11.25;;;-0.80;99.90;;;;;;4953838;28;89159;-78
2024/01/08 09:57:02;;;;;;;19.63;10.65;;;-0.80;99.90;;;;;;4955458;28;88195;-79
2024/01/08 09:59:28;;;;;;;22.02;11.35;;;-0.80;99.90;;;;;;4954198;28;87131;-77
2024/01/08 10:01:56;;;;;;;22.02;11.30;;;-0.80;99.90;;;;;;4935666;28;87132;-79
2024/01/08 10:04:25;;;;;;;21.08;10.65;;;-0.80;99.90;;;;;;4929250;28;87851;-78
2024/01/08 10:07:06;;;;;;;20.10;10.63;;;-0.80;99.90;;;;;;4933994;28;87435;-79
2024/01/08 10:09:33;;;;;;;23.65;11.43;;;-0.80;99.90;;;;;;4947278;28;88108;-79
2024/01/08 10:11:59;;;;;;;25.13;12.45;;;-0.70;99.90;;;;;;4938234;28;87104;-78
2024/01/08 10:14:26;;;;;;;19.98;10.73;;;-0.70;99.90;;;;;;4934743;28;88248;-78
2024/01/08 10:16:53;;;;;;;20.55;10.90;;;-0.70;99.90;;;;;;4932741;28;88665;-78
2024/01/08 10:19:24;;;;;;;20.88;11.43;;;-0.60;99.90;;;;;;4924812;28;88575;-77
2024/01/08 10:22:11;;;;;;;20.40;11.77;;;-0.50;99.90;;;;;;4927899;28;87354;-77
2024/01/08 10:24:39;;;;;;;20.90;10.82;;;-0.50;99.90;;;;;;4934039;28;87174;-79
2024/01/08 10:27:09;;;;;;;21.30;11.63;;;-0.50;99.90;;;;;;4953894;28;88705;-78
2024/01/08 10:29:36;;;;;;;21.70;10.85;;;-0.50;99.90;;;;;;4936679;28;87726;-78
2024/01/08 10:32:02;;;;;;;23.30;10.63;;;-0.40;99.90;;;;;;4953821;28;87549;-77
2024/01/08 10:34:29;;;;;;;25.52;12.05;;;-0.40;99.90;;;;;;4934423;28;87888;-78
2024/01/08 10:36:57;;;;;;;20.90;11.50;;;-0.30;99.90;;;;;;4950538;28;86838;-78
2024/01/08 10:39:25;;;;;;;23.55;12.07;;;-0.20;99.90;;;;;;4934564;28;87121;-77
2024/01/08 10:41:51;;;;;;;24.08;11.35;;;0.00;99.90;;;;;;4952864;28;87181;-77
2024/01/08 10:44:17;;;;;;;23.10;12.10;;;0.10;99.90;;;;;;4935509;28;88771;-78
2024/01/08 10:46:59;;;;;;;19.50;11.20;;;0.10;99.90;;;;;;4952643;28;87598;-77
2024/01/08 10:49:33;;;;;;;20.95;10.98;;;0.10;99.90;;;;;;4922096;28;87739;-79
2024/01/08 10:52:01;;;;;;;18.90;10.88;;;0.10;99.90;;;;;;4931962;28;87083;-78
2024/01/08 10:54:50;;;;;;;21.48;10.13;;;0.00;99.90;;;;;;4939663;28;89731;-77
2024/01/08 10:57:18;;;;;;;20.70;10.73;;;0.00;99.90;;;;;;4929768;28;87699;-78
2024/01/08 10:59:45;;;;;;;18.02;10.57;;;0.00;99.90;;;;;;4942712;28;87732;-79
2024/01/08 11:02:14;;;;;;;20.90;9.88;;;0.10;99.90;;;;;;4926342;28;87093;-78
2024/01/08 11:04:42;;;;;;;19.52;9.35;;;0.10;99.90;;;;;;4929168;28;88292;-78
2024/01/08 11:07:13;;;;;;;17.02;10.00;;;0.10;99.90;;;;;;4928537;28;87583;-77
2024/01/08 11:09:39;;;;;;;17.80;9.70;;;0.20;99.90;;;;;;4924408;28;88711;-78
2024/01/08 11:12:10;;;;;;;19.58;9.63;;;0.20;99.90;;;;;;4948095;28;87323;-78
2024/01/08 11:14:36;;;;;;;15.65;8.23;;;0.20;99.90;;;;;;4927438;28;88103;-78
2024/01/08 11:17:02;;;;;;;15.07;9.35;;;0.20;99.90;;;;;;4926459;28;88013;-78
2024/01/08 11:19:27;;;;;;;16.08;9.88;;;0.20;99.90;;;;;;4944649;28;87367;-79
2024/01/08 11:22:10;;;;;;;17.92;9.65;;;0.20;99.90;;;;;;4927374;28;87302;-80
2024/01/08 11:24:37;;;;;;;19.45;9.38;;;0.10;99.90;;;;;;4933556;28;87265;-79
2024/01/08 11:27:03;;;;;;;18.65;10.32;;;0.10;99.90;;;;;;4980980;23;86901;-79
2024/01/08 11:29:28;;;;;;;17.20;9.85;;;0.20;99.90;;;;;;4934101;28;87158;-80
2024/01/08 11:32:23;;;;;;;15.57;9.25;;;0.30;99.90;;;;;;4915774;28;87131;-79
2024/01/08 11:34:57;;;;;;;16.45;9.65;;;0.20;99.90;;;;;;4922735;28;88110;-79
2024/01/08 11:37:35;;;;;;;16.52;8.95;;;0.20;99.90;;;;;;4911447;28;88271;-78
2024/01/08 11:40:04;;;;;;;14.85;8.45;;;0.30;99.90;;;;;;4936957;28;88465;-79
2024/01/08 11:42:34;;;;;;;17.70;10.02;;;0.40;99.90;;;;;;4938215;28;87399;-79
2024/01/08 11:45:03;;;;;;;17.15;9.55;;;0.40;99.90;;;;;;4937624;28;87981;-78
2024/01/08 11:47:33;;;;;;;20.08;9.77;;;0.40;99.90;;;;;;4930784;28;87500;-77
2024/01/08 11:49:59;;;;;;;17.88;10.07;;;0.40;99.90;;;;;;4916207;28;87410;-78
2024/01/08 11:52:30;;;;;;;17.80;10.00;;;0.30;99.90;;;;;;4893113;28;87718;-82
2024/01/08 11:54:57;;;;;;;16.52;9.98;;;0.30;99.90;;;;;;4909197;28;89072;-81
2024/01/08 11:57:23;;;;;;;19.45;10.45;;;0.30;99.90;;;;;;4909060;28;87870;-78
2024/01/08 11:59:54;;;;;;;17.35;10.10;;;0.30;99.90;;;;;;4918986;28;88021;-81
2024/01/08 12:02:31;;;;;;;19.90;10.50;;;0.20;99.90;;;;;;4915935;28;87684;-78
2024/01/08 12:04:58;;;;;;;18.05;10.27;;;0.20;99.90;;;;;;4903743;28;88137;-81
2024/01/08 12:07:28;;;;;;;17.65;10.77;;;0.10;99.90;;;;;;4975056;22;87592;-84
2024/01/08 12:13:36;;;;;;;21.17;10.00;;;0.10;99.90;;;;;;4982442;23;87549;-79
2024/01/08 12:16:02;;;;;;;19.75;10.10;;;0.00;99.90;;;;;;4933699;28;87938;-80
2024/01/08 12:18:29;;;;;;;16.77;9.45;;;0.00;99.90;;;;;;4931821;28;86698;-81
2024/01/08 12:20:55;;;;;;;14.27;8.60;;;0.00;99.90;;;;;;4935151;28;87141;-79
2024/01/08 12:23:22;;;;;;;16.55;9.98;;;0.00;99.90;;;;;;4929203;28;88204;-81
2024/01/08 12:25:51;;;;;;;17.65;8.73;;;0.00;99.90;;;;;;4914677;28;90430;-82
2024/01/08 12:28:17;;;;;;;16.20;8.95;;;0.00;99.90;;;;;;4904321;28;88555;-80
2024/01/08 12:30:58;;;;;;;14.05;7.90;;;0.00;99.90;;;;;;4931167;28;87390;-79
2024/01/08 12:33:25;;;;;;;11.85;7.43;;;0.00;99.90;;;;;;4926427;28;87717;-81
2024/01/08 12:35:55;;;;;;;13.27;7.57;;;0.00;99.90;;;;;;4915933;28;88572;-81
2024/01/08 12:38:21;;;;;;;14.23;8.15;;;0.00;99.90;;;;;;4916378;28;88817;-78
2024/01/08 12:40:53;;;;;;;15.18;7.60;;;0.00;99.90;;;;;;4930371;28;87944;-80
2024/01/08 12:43:20;;;;;;;14.20;6.70;;;0.00;99.90;;;;;;4924824;28;87146;-81
2024/01/08 12:45:50;;;;;;;13.82;6.53;;;0.10;99.90;;;;;;4923087;28;87505;-79
2024/01/08 12:48:17;;;;;;;10.85;6.25;;;0.10;99.90;;;;;;4906129;28;88458;-80